sensor_id;sensor_type;location;lat;lon;timestamp;temperature;humidity
17370;DHT22;8802;52.402;4.920;2022-08-03T00:01:33;23.90;91.40
17370;DHT22;8802;52.402;4.920;2022-08-03T00:04:01;23.90;91.40
17370;DHT22;8802;52.402;4.920;2022-08-03T00:06:28;23.90;91.40
17370;DHT22;8802;52.402;4.920;2022-08-03T00:08:54;23.90;91.40
17370;DHT22;8802;52.402;4.920;2022-08-03T00:11:21;23.80;91.40
17370;DHT22;8802;52.402;4.920;2022-08-03T00:13:49;23.80;91.50
17370;DHT22;8802;52.402;4.920;2022-08-03T00:16:17;23.80;91.60
17370;DHT22;8802;52.402;4.920;2022-08-03T00:18:44;23.80;91.50
17370;DHT22;8802;52.402;4.920;2022-08-03T00:21:11;23.80;91.60
17370;DHT22;8802;52.402;4.920;2022-08-03T00:23:38;23.80;91.60
17370;DHT22;8802;52.402;4.920;2022-08-03T00:26:05;23.80;91.60
17370;DHT22;8802;52.402;4.920;2022-08-03T00:28:31;23.80;91.60
17370;DHT22;8802;52.402;4.920;2022-08-03T00:30:58;23.70;91.70
17370;DHT22;8802;52.402;4.920;2022-08-03T00:33:27;23.70;91.60
17370;DHT22;8802;52.402;4.920;2022-08-03T00:35:53;23.70;91.60
17370;DHT22;8802;52.402;4.920;2022-08-03T00:38:20;23.70;91.70
17370;DHT22;8802;52.402;4.920;2022-08-03T00:40:47;23.70;91.70
17370;DHT22;8802;52.402;4.920;2022-08-03T00:43:14;23.70;91.70
17370;DHT22;8802;52.402;4.920;2022-08-03T00:45:41;23.70;91.70
17370;DHT22;8802;52.402;4.920;2022-08-03T00:48:10;23.60;91.70
17370;DHT22;8802;52.402;4.920;2022-08-03T00:50:41;23.60;91.70
17370;DHT22;8802;52.402;4.920;2022-08-03T00:53:10;23.60;91.70
17370;DHT22;8802;52.402;4.920;2022-08-03T00:55:38;23.60;91.80
17370;DHT22;8802;52.402;4.920;2022-08-03T00:58:05;23.60;91.80
17370;DHT22;8802;52.402;4.920;2022-08-03T01:00:34;23.60;91.80
17370;DHT22;8802;52.402;4.920;2022-08-03T01:03:03;23.60;91.80
17370;DHT22;8802;52.402;4.920;2022-08-03T01:05:32;23.60;91.90
17370;DHT22;8802;52.402;4.920;2022-08-03T01:08:12;23.60;91.90
17370;DHT22;8802;52.402;4.920;2022-08-03T01:10:56;23.50;91.80
17370;DHT22;8802;52.402;4.920;2022-08-03T01:13:33;23.50;91.70
17370;DHT22;8802;52.402;4.920;2022-08-03T01:16:05;23.50;91.70
17370;DHT22;8802;52.402;4.920;2022-08-03T01:18:38;23.50;91.90
17370;DHT22;8802;52.402;4.920;2022-08-03T01:21:10;23.50;91.90
17370;DHT22;8802;52.402;4.920;2022-08-03T01:24:02;23.50;91.90
17370;DHT22;8802;52.402;4.920;2022-08-03T01:29:51;23.40;91.90
17370;DHT22;8802;52.402;4.920;2022-08-03T01:32:25;23.40;91.90
17370;DHT22;8802;52.402;4.920;2022-08-03T01:34:58;23.40;92.00
17370;DHT22;8802;52.402;4.920;2022-08-03T01:37:31;23.40;92.10
17370;DHT22;8802;52.402;4.920;2022-08-03T01:40:01;23.40;92.10
17370;DHT22;8802;52.402;4.920;2022-08-03T01:42:30;23.40;92.20
17370;DHT22;8802;52.402;4.920;2022-08-03T01:45:00;23.40;92.30
17370;DHT22;8802;52.402;4.920;2022-08-03T01:47:28;23.40;92.20
17370;DHT22;8802;52.402;4.920;2022-08-03T01:49:56;23.40;92.20
17370;DHT22;8802;52.402;4.920;2022-08-03T01:52:24;23.30;92.20
17370;DHT22;8802;52.402;4.920;2022-08-03T01:54:52;23.30;92.30
17370;DHT22;8802;52.402;4.920;2022-08-03T01:57:20;23.40;92.30
17370;DHT22;8802;52.402;4.920;2022-08-03T01:59:49;23.30;92.30
17370;DHT22;8802;52.402;4.920;2022-08-03T02:02:20;23.30;92.20
17370;DHT22;8802;52.402;4.920;2022-08-03T02:04:48;23.30;92.30
17370;DHT22;8802;52.402;4.920;2022-08-03T02:07:16;23.30;92.30
17370;DHT22;8802;52.402;4.920;2022-08-03T02:09:45;23.30;92.40
17370;DHT22;8802;52.402;4.920;2022-08-03T02:12:15;23.30;92.40
17370;DHT22;8802;52.402;4.920;2022-08-03T02:14:43;23.30;92.30
17370;DHT22;8802;52.402;4.920;2022-08-03T02:17:11;23.30;92.40
17370;DHT22;8802;52.402;4.920;2022-08-03T02:19:41;23.20;92.40
17370;DHT22;8802;52.402;4.920;2022-08-03T02:22:10;23.20;92.40
17370;DHT22;8802;52.402;4.920;2022-08-03T02:24:37;23.20;92.40
17370;DHT22;8802;52.402;4.920;2022-08-03T02:27:09;23.20;92.40
17370;DHT22;8802;52.402;4.920;2022-08-03T02:29:38;23.20;92.50
17370;DHT22;8802;52.402;4.920;2022-08-03T02:32:09;23.20;92.50
17370;DHT22;8802;52.402;4.920;2022-08-03T02:34:41;23.20;92.50
17370;DHT22;8802;52.402;4.920;2022-08-03T02:37:10;23.20;92.50
17370;DHT22;8802;52.402;4.920;2022-08-03T02:39:39;23.20;92.90
17370;DHT22;8802;52.402;4.920;2022-08-03T02:42:08;23.20;92.50
17370;DHT22;8802;52.402;4.920;2022-08-03T02:44:36;23.20;92.60
17370;DHT22;8802;52.402;4.920;2022-08-03T02:47:08;23.10;92.50
17370;DHT22;8802;52.402;4.920;2022-08-03T02:49:37;23.10;92.50
17370;DHT22;8802;52.402;4.920;2022-08-03T02:52:08;23.10;92.60
17370;DHT22;8802;52.402;4.920;2022-08-03T02:54:37;23.10;92.60
17370;DHT22;8802;52.402;4.920;2022-08-03T02:57:06;23.10;92.50
17370;DHT22;8802;52.402;4.920;2022-08-03T02:59:33;23.10;92.60
17370;DHT22;8802;52.402;4.920;2022-08-03T03:02:02;23.10;92.60
17370;DHT22;8802;52.402;4.920;2022-08-03T03:04:30;23.00;92.50
17370;DHT22;8802;52.402;4.920;2022-08-03T03:06:57;23.00;92.60
17370;DHT22;8802;52.402;4.920;2022-08-03T03:09:26;23.00;92.70
17370;DHT22;8802;52.402;4.920;2022-08-03T03:11:54;23.00;92.70
17370;DHT22;8802;52.402;4.920;2022-08-03T03:14:22;23.00;92.60
17370;DHT22;8802;52.402;4.920;2022-08-03T03:16:51;23.00;92.60
17370;DHT22;8802;52.402;4.920;2022-08-03T03:19:19;23.00;92.70
17370;DHT22;8802;52.402;4.920;2022-08-03T03:21:46;22.90;92.60
17370;DHT22;8802;52.402;4.920;2022-08-03T03:24:14;22.90;92.70
17370;DHT22;8802;52.402;4.920;2022-08-03T03:26:43;22.90;92.70
17370;DHT22;8802;52.402;4.920;2022-08-03T03:29:11;22.90;92.70
17370;DHT22;8802;52.402;4.920;2022-08-03T03:31:38;22.90;92.70
17370;DHT22;8802;52.402;4.920;2022-08-03T03:34:05;22.80;92.80
17370;DHT22;8802;52.402;4.920;2022-08-03T03:36:32;22.80;92.90
17370;DHT22;8802;52.402;4.920;2022-08-03T03:38:59;22.80;93.20
17370;DHT22;8802;52.402;4.920;2022-08-03T03:41:26;22.80;92.90
17370;DHT22;8802;52.402;4.920;2022-08-03T03:43:55;22.80;92.90
17370;DHT22;8802;52.402;4.920;2022-08-03T03:46:22;22.80;93.00
17370;DHT22;8802;52.402;4.920;2022-08-03T03:48:49;22.70;92.80
17370;DHT22;8802;52.402;4.920;2022-08-03T03:51:16;22.70;93.00
17370;DHT22;8802;52.402;4.920;2022-08-03T03:53:54;22.70;93.00
17370;DHT22;8802;52.402;4.920;2022-08-03T03:56:21;22.70;93.10
17370;DHT22;8802;52.402;4.920;2022-08-03T03:58:48;22.70;93.10
17370;DHT22;8802;52.402;4.920;2022-08-03T04:01:17;22.70;93.20
17370;DHT22;8802;52.402;4.920;2022-08-03T04:03:44;22.70;93.20
17370;DHT22;8802;52.402;4.920;2022-08-03T04:06:11;22.70;93.10
17370;DHT22;8802;52.402;4.920;2022-08-03T04:08:56;22.60;93.20
17370;DHT22;8802;52.402;4.920;2022-08-03T04:11:46;22.60;93.20
17370;DHT22;8802;52.402;4.920;2022-08-03T04:14:17;22.60;93.20
17370;DHT22;8802;52.402;4.920;2022-08-03T04:16:49;22.60;93.20
17370;DHT22;8802;52.402;4.920;2022-08-03T04:19:20;22.60;93.30
17370;DHT22;8802;52.402;4.920;2022-08-03T04:21:52;22.60;93.40
17370;DHT22;8802;52.402;4.920;2022-08-03T04:24:21;22.60;93.40
17370;DHT22;8802;52.402;4.920;2022-08-03T04:26:50;22.60;93.40
17370;DHT22;8802;52.402;4.920;2022-08-03T04:29:17;22.60;93.50
17370;DHT22;8802;52.402;4.920;2022-08-03T04:31:47;22.60;93.50
17370;DHT22;8802;52.402;4.920;2022-08-03T04:34:15;22.50;93.40
17370;DHT22;8802;52.402;4.920;2022-08-03T04:36:46;22.60;93.50
17370;DHT22;8802;52.402;4.920;2022-08-03T04:39:17;22.50;93.50
17370;DHT22;8802;52.402;4.920;2022-08-03T04:41:46;22.50;93.60
17370;DHT22;8802;52.402;4.920;2022-08-03T04:44:14;22.50;93.60
17370;DHT22;8802;52.402;4.920;2022-08-03T04:46:42;22.50;93.70
17370;DHT22;8802;52.402;4.920;2022-08-03T04:49:11;22.50;93.80
17370;DHT22;8802;52.402;4.920;2022-08-03T04:51:38;22.50;93.90
17370;DHT22;8802;52.402;4.920;2022-08-03T04:54:11;22.50;93.90
17370;DHT22;8802;52.402;4.920;2022-08-03T04:56:39;22.50;94.00
17370;DHT22;8802;52.402;4.920;2022-08-03T04:59:06;22.50;94.00
17370;DHT22;8802;52.402;4.920;2022-08-03T05:01:33;22.50;94.10
17370;DHT22;8802;52.402;4.920;2022-08-03T05:04:00;22.50;94.00
17370;DHT22;8802;52.402;4.920;2022-08-03T05:06:28;22.60;94.10
17370;DHT22;8802;52.402;4.920;2022-08-03T05:08:55;22.60;94.10
17370;DHT22;8802;52.402;4.920;2022-08-03T05:11:22;22.60;94.00
17370;DHT22;8802;52.402;4.920;2022-08-03T05:13:49;22.60;94.10
17370;DHT22;8802;52.402;4.920;2022-08-03T05:16:16;22.60;94.20
17370;DHT22;8802;52.402;4.920;2022-08-03T05:18:43;22.60;94.10
17370;DHT22;8802;52.402;4.920;2022-08-03T05:21:11;22.60;94.20
17370;DHT22;8802;52.402;4.920;2022-08-03T05:23:40;22.70;94.20
17370;DHT22;8802;52.402;4.920;2022-08-03T05:26:07;22.70;94.20
17370;DHT22;8802;52.402;4.920;2022-08-03T05:28:36;22.70;94.10
17370;DHT22;8802;52.402;4.920;2022-08-03T05:31:03;22.70;94.20
17370;DHT22;8802;52.402;4.920;2022-08-03T05:33:30;22.70;94.10
17370;DHT22;8802;52.402;4.920;2022-08-03T05:35:57;22.70;94.10
17370;DHT22;8802;52.402;4.920;2022-08-03T05:38:24;22.80;94.10
17370;DHT22;8802;52.402;4.920;2022-08-03T05:40:52;22.80;94.00
17370;DHT22;8802;52.402;4.920;2022-08-03T05:43:19;22.80;94.00
17370;DHT22;8802;52.402;4.920;2022-08-03T05:45:47;22.80;94.10
17370;DHT22;8802;52.402;4.920;2022-08-03T05:48:14;22.80;94.10
17370;DHT22;8802;52.402;4.920;2022-08-03T05:50:41;22.90;94.10
17370;DHT22;8802;52.402;4.920;2022-08-03T05:53:08;22.90;94.10
17370;DHT22;8802;52.402;4.920;2022-08-03T05:55:35;22.90;94.00
17370;DHT22;8802;52.402;4.920;2022-08-03T05:58:03;22.90;94.00
17370;DHT22;8802;52.402;4.920;2022-08-03T06:00:30;23.00;94.00
17370;DHT22;8802;52.402;4.920;2022-08-03T06:02:57;23.00;94.00
17370;DHT22;8802;52.402;4.920;2022-08-03T06:05:24;23.00;94.00
17370;DHT22;8802;52.402;4.920;2022-08-03T06:07:53;23.00;93.90
17370;DHT22;8802;52.402;4.920;2022-08-03T06:10:20;23.00;94.00
17370;DHT22;8802;52.402;4.920;2022-08-03T06:12:47;23.00;94.00
17370;DHT22;8802;52.402;4.920;2022-08-03T06:15:16;23.10;94.00
17370;DHT22;8802;52.402;4.920;2022-08-03T06:17:45;23.10;93.90
17370;DHT22;8802;52.402;4.920;2022-08-03T06:20:12;23.10;93.80
17370;DHT22;8802;52.402;4.920;2022-08-03T06:22:40;23.10;94.00
17370;DHT22;8802;52.402;4.920;2022-08-03T06:25:07;23.20;94.00
17370;DHT22;8802;52.402;4.920;2022-08-03T06:27:34;23.20;94.00
17370;DHT22;8802;52.402;4.920;2022-08-03T06:30:06;23.20;94.00
17370;DHT22;8802;52.402;4.920;2022-08-03T06:32:36;23.20;93.90
17370;DHT22;8802;52.402;4.920;2022-08-03T06:35:05;23.20;94.00
17370;DHT22;8802;52.402;4.920;2022-08-03T06:37:41;23.20;93.80
17370;DHT22;8802;52.402;4.920;2022-08-03T06:40:10;23.30;93.80
17370;DHT22;8802;52.402;4.920;2022-08-03T06:42:37;23.30;93.90
17370;DHT22;8802;52.402;4.920;2022-08-03T06:45:05;23.30;93.80
17370;DHT22;8802;52.402;4.920;2022-08-03T06:47:33;23.40;93.80
17370;DHT22;8802;52.402;4.920;2022-08-03T06:50:02;23.40;94.00
17370;DHT22;8802;52.402;4.920;2022-08-03T06:52:29;23.40;93.90
17370;DHT22;8802;52.402;4.920;2022-08-03T06:54:56;23.50;93.80
17370;DHT22;8802;52.402;4.920;2022-08-03T06:57:23;23.50;93.70
17370;DHT22;8802;52.402;4.920;2022-08-03T06:59:50;23.50;93.70
17370;DHT22;8802;52.402;4.920;2022-08-03T07:02:17;23.50;93.80
17370;DHT22;8802;52.402;4.920;2022-08-03T07:04:44;23.60;93.70
17370;DHT22;8802;52.402;4.920;2022-08-03T07:07:13;23.60;93.70
17370;DHT22;8802;52.402;4.920;2022-08-03T07:09:39;23.60;93.60
17370;DHT22;8802;52.402;4.920;2022-08-03T07:12:08;23.70;93.60
17370;DHT22;8802;52.402;4.920;2022-08-03T07:14:39;23.70;93.60
17370;DHT22;8802;52.402;4.920;2022-08-03T07:17:06;23.70;93.70
17370;DHT22;8802;52.402;4.920;2022-08-03T07:19:45;23.80;93.70
17370;DHT22;8802;52.402;4.920;2022-08-03T07:22:13;23.90;93.50
17370;DHT22;8802;52.402;4.920;2022-08-03T07:24:40;23.90;93.50
17370;DHT22;8802;52.402;4.920;2022-08-03T07:27:07;23.90;93.50
17370;DHT22;8802;52.402;4.920;2022-08-03T07:29:34;24.00;93.40
17370;DHT22;8802;52.402;4.920;2022-08-03T07:32:02;24.00;93.40
17370;DHT22;8802;52.402;4.920;2022-08-03T07:34:30;24.10;93.50
17370;DHT22;8802;52.402;4.920;2022-08-03T07:36:57;24.10;93.50
17370;DHT22;8802;52.402;4.920;2022-08-03T07:39:25;24.20;93.20
17370;DHT22;8802;52.402;4.920;2022-08-03T07:41:52;24.30;93.10
17370;DHT22;8802;52.402;4.920;2022-08-03T07:44:19;24.30;93.10
17370;DHT22;8802;52.402;4.920;2022-08-03T07:46:46;24.40;92.90
17370;DHT22;8802;52.402;4.920;2022-08-03T07:49:15;24.40;92.70
17370;DHT22;8802;52.402;4.920;2022-08-03T07:51:42;24.50;92.70
17370;DHT22;8802;52.402;4.920;2022-08-03T07:54:09;24.60;92.90
17370;DHT22;8802;52.402;4.920;2022-08-03T07:56:37;24.60;92.60
17370;DHT22;8802;52.402;4.920;2022-08-03T07:59:04;24.60;92.50
17370;DHT22;8802;52.402;4.920;2022-08-03T08:01:31;24.70;92.50
17370;DHT22;8802;52.402;4.920;2022-08-03T08:04:01;24.70;92.50
17370;DHT22;8802;52.402;4.920;2022-08-03T08:06:27;24.80;92.50
17370;DHT22;8802;52.402;4.920;2022-08-03T08:08:57;24.80;92.30
17370;DHT22;8802;52.402;4.920;2022-08-03T08:11:26;24.90;92.30
17370;DHT22;8802;52.402;4.920;2022-08-03T08:13:54;24.90;92.20
17370;DHT22;8802;52.402;4.920;2022-08-03T08:16:21;25.00;92.20
17370;DHT22;8802;52.402;4.920;2022-08-03T08:18:48;25.00;92.20
17370;DHT22;8802;52.402;4.920;2022-08-03T08:21:15;25.10;92.00
17370;DHT22;8802;52.402;4.920;2022-08-03T08:23:41;25.10;91.80
17370;DHT22;8802;52.402;4.920;2022-08-03T08:26:08;25.20;91.90
17370;DHT22;8802;52.402;4.920;2022-08-03T08:28:35;25.20;91.80
17370;DHT22;8802;52.402;4.920;2022-08-03T08:31:04;25.20;91.70
17370;DHT22;8802;52.402;4.920;2022-08-03T08:33:31;25.30;91.60
17370;DHT22;8802;52.402;4.920;2022-08-03T08:35:59;25.30;91.30
17370;DHT22;8802;52.402;4.920;2022-08-03T08:38:26;25.40;91.30
17370;DHT22;8802;52.402;4.920;2022-08-03T08:40:54;25.40;91.30
17370;DHT22;8802;52.402;4.920;2022-08-03T08:43:21;25.50;91.30
17370;DHT22;8802;52.402;4.920;2022-08-03T08:45:49;25.50;90.90
17370;DHT22;8802;52.402;4.920;2022-08-03T08:48:22;25.50;91.10
17370;DHT22;8802;52.402;4.920;2022-08-03T08:50:52;25.60;91.00
17370;DHT22;8802;52.402;4.920;2022-08-03T08:53:20;25.60;91.00
17370;DHT22;8802;52.402;4.920;2022-08-03T08:55:49;25.70;90.90
17370;DHT22;8802;52.402;4.920;2022-08-03T08:58:18;25.70;90.70
17370;DHT22;8802;52.402;4.920;2022-08-03T09:00:47;25.80;91.10
17370;DHT22;8802;52.402;4.920;2022-08-03T09:03:14;25.90;90.80
17370;DHT22;8802;52.402;4.920;2022-08-03T09:05:44;25.90;90.40
17370;DHT22;8802;52.402;4.920;2022-08-03T09:08:11;26.00;90.30
17370;DHT22;8802;52.402;4.920;2022-08-03T09:10:38;26.00;90.70
17370;DHT22;8802;52.402;4.920;2022-08-03T09:13:07;26.10;90.50
17370;DHT22;8802;52.402;4.920;2022-08-03T09:15:34;26.10;90.40
17370;DHT22;8802;52.402;4.920;2022-08-03T09:18:03;26.20;90.50
17370;DHT22;8802;52.402;4.920;2022-08-03T09:20:32;26.30;90.40
17370;DHT22;8802;52.402;4.920;2022-08-03T09:23:04;26.40;90.40
17370;DHT22;8802;52.402;4.920;2022-08-03T09:25:36;26.40;90.30
17370;DHT22;8802;52.402;4.920;2022-08-03T09:28:08;26.50;90.20
17370;DHT22;8802;52.402;4.920;2022-08-03T09:30:36;26.60;89.90
17370;DHT22;8802;52.402;4.920;2022-08-03T09:33:05;26.70;89.80
17370;DHT22;8802;52.402;4.920;2022-08-03T09:35:32;26.80;89.50
17370;DHT22;8802;52.402;4.920;2022-08-03T09:38:13;26.90;90.00
17370;DHT22;8802;52.402;4.920;2022-08-03T09:40:41;27.00;89.60
17370;DHT22;8802;52.402;4.920;2022-08-03T09:43:09;27.10;89.70
17370;DHT22;8802;52.402;4.920;2022-08-03T09:45:36;27.20;89.20
17370;DHT22;8802;52.402;4.920;2022-08-03T09:48:23;27.30;88.60
17370;DHT22;8802;52.402;4.920;2022-08-03T09:50:51;27.40;88.10
17370;DHT22;8802;52.402;4.920;2022-08-03T09:53:21;27.50;88.00
17370;DHT22;8802;52.402;4.920;2022-08-03T09:55:55;27.60;87.70
17370;DHT22;8802;52.402;4.920;2022-08-03T09:58:23;27.70;87.20
17370;DHT22;8802;52.402;4.920;2022-08-03T10:00:55;27.80;88.00
17370;DHT22;8802;52.402;4.920;2022-08-03T10:03:25;27.90;87.70
17370;DHT22;8802;52.402;4.920;2022-08-03T10:05:52;28.10;86.10
17370;DHT22;8802;52.402;4.920;2022-08-03T10:08:21;28.20;85.80
17370;DHT22;8802;52.402;4.920;2022-08-03T10:10:50;28.30;85.70
17370;DHT22;8802;52.402;4.920;2022-08-03T10:13:20;28.40;85.30
17370;DHT22;8802;52.402;4.920;2022-08-03T10:15:47;28.50;85.00
17370;DHT22;8802;52.402;4.920;2022-08-03T10:18:14;28.70;85.60
17370;DHT22;8802;52.402;4.920;2022-08-03T10:20:45;28.80;84.20
17370;DHT22;8802;52.402;4.920;2022-08-03T10:23:16;28.90;85.20
17370;DHT22;8802;52.402;4.920;2022-08-03T10:25:47;29.10;84.20
17370;DHT22;8802;52.402;4.920;2022-08-03T10:28:17;29.20;83.60
17370;DHT22;8802;52.402;4.920;2022-08-03T10:30:48;29.40;82.30
17370;DHT22;8802;52.402;4.920;2022-08-03T10:33:19;29.50;82.90
17370;DHT22;8802;52.402;4.920;2022-08-03T10:35:49;29.70;82.00
17370;DHT22;8802;52.402;4.920;2022-08-03T10:38:19;29.80;81.90
17370;DHT22;8802;52.402;4.920;2022-08-03T10:40:52;29.90;81.80
17370;DHT22;8802;52.402;4.920;2022-08-03T10:43:21;30.00;80.80
17370;DHT22;8802;52.402;4.920;2022-08-03T10:45:48;30.10;80.40
17370;DHT22;8802;52.402;4.920;2022-08-03T10:48:16;30.20;79.50
17370;DHT22;8802;52.402;4.920;2022-08-03T10:50:43;30.40;79.10
17370;DHT22;8802;52.402;4.920;2022-08-03T10:53:10;30.50;79.00
17370;DHT22;8802;52.402;4.920;2022-08-03T10:55:39;30.60;79.10
17370;DHT22;8802;52.402;4.920;2022-08-03T10:58:46;30.70;79.00
17370;DHT22;8802;52.402;4.920;2022-08-03T11:01:15;30.80;76.90
17370;DHT22;8802;52.402;4.920;2022-08-03T11:04:15;30.90;77.80
17370;DHT22;8802;52.402;4.920;2022-08-03T11:06:44;31.10;77.20
17370;DHT22;8802;52.402;4.920;2022-08-03T11:09:15;31.20;77.60
17370;DHT22;8802;52.402;4.920;2022-08-03T11:11:43;31.30;77.00
17370;DHT22;8802;52.402;4.920;2022-08-03T11:14:14;31.40;76.70
17370;DHT22;8802;52.402;4.920;2022-08-03T11:16:43;31.50;75.60
17370;DHT22;8802;52.402;4.920;2022-08-03T11:19:13;31.60;75.70
17370;DHT22;8802;52.402;4.920;2022-08-03T11:21:57;31.70;75.30
17370;DHT22;8802;52.402;4.920;2022-08-03T11:27:25;31.90;73.10
17370;DHT22;8802;52.402;4.920;2022-08-03T11:30:03;32.00;73.80
17370;DHT22;8802;52.402;4.920;2022-08-03T11:32:52;32.10;73.30
17370;DHT22;8802;52.402;4.920;2022-08-03T11:35:22;32.20;73.40
17370;DHT22;8802;52.402;4.920;2022-08-03T11:38:09;32.30;73.60
17370;DHT22;8802;52.402;4.920;2022-08-03T11:40:39;32.40;72.00
17370;DHT22;8802;52.402;4.920;2022-08-03T11:43:07;32.50;72.60
17370;DHT22;8802;52.402;4.920;2022-08-03T11:45:36;32.60;71.70
17370;DHT22;8802;52.402;4.920;2022-08-03T11:48:13;32.70;71.50
17370;DHT22;8802;52.402;4.920;2022-08-03T11:50:41;32.80;70.20
17370;DHT22;8802;52.402;4.920;2022-08-03T11:53:14;32.90;70.40
17370;DHT22;8802;52.402;4.920;2022-08-03T11:55:41;33.10;71.00
17370;DHT22;8802;52.402;4.920;2022-08-03T11:58:15;33.10;70.60
17370;DHT22;8802;52.402;4.920;2022-08-03T12:00:44;33.20;69.70
17370;DHT22;8802;52.402;4.920;2022-08-03T12:03:12;33.30;69.80
17370;DHT22;8802;52.402;4.920;2022-08-03T12:05:51;33.40;68.40
17370;DHT22;8802;52.402;4.920;2022-08-03T12:08:29;33.50;67.70
17370;DHT22;8802;52.402;4.920;2022-08-03T12:10:57;33.50;67.80
17370;DHT22;8802;52.402;4.920;2022-08-03T12:13:25;33.70;68.00
17370;DHT22;8802;52.402;4.920;2022-08-03T12:15:55;33.70;68.40
17370;DHT22;8802;52.402;4.920;2022-08-03T12:18:24;33.80;67.20
17370;DHT22;8802;52.402;4.920;2022-08-03T12:20:52;33.80;67.30
17370;DHT22;8802;52.402;4.920;2022-08-03T12:23:19;33.90;67.50
17370;DHT22;8802;52.402;4.920;2022-08-03T12:25:46;34.00;66.20
17370;DHT22;8802;52.402;4.920;2022-08-03T12:28:16;34.00;65.00
17370;DHT22;8802;52.402;4.920;2022-08-03T12:30:45;34.10;64.20
17370;DHT22;8802;52.402;4.920;2022-08-03T12:33:21;34.20;63.60
17370;DHT22;8802;52.402;4.920;2022-08-03T12:35:50;34.20;63.30
17370;DHT22;8802;52.402;4.920;2022-08-03T12:38:27;34.30;64.70
17370;DHT22;8802;52.402;4.920;2022-08-03T12:40:58;34.30;63.30
17370;DHT22;8802;52.402;4.920;2022-08-03T12:43:26;34.40;61.90
17370;DHT22;8802;52.402;4.920;2022-08-03T12:46:06;34.40;62.30
17370;DHT22;8802;52.402;4.920;2022-08-03T12:48:35;34.40;61.60
17370;DHT22;8802;52.402;4.920;2022-08-03T12:51:08;34.40;61.70
17370;DHT22;8802;52.402;4.920;2022-08-03T12:53:35;34.40;61.20
17370;DHT22;8802;52.402;4.920;2022-08-03T12:56:04;34.40;62.30
17370;DHT22;8802;52.402;4.920;2022-08-03T12:58:32;34.50;62.30
17370;DHT22;8802;52.402;4.920;2022-08-03T13:01:00;34.40;62.50
17370;DHT22;8802;52.402;4.920;2022-08-03T13:03:27;34.40;61.10
17370;DHT22;8802;52.402;4.920;2022-08-03T13:05:55;34.40;59.80
17370;DHT22;8802;52.402;4.920;2022-08-03T13:08:24;34.40;59.30
17370;DHT22;8802;52.402;4.920;2022-08-03T13:10:51;34.40;58.30
17370;DHT22;8802;52.402;4.920;2022-08-03T13:16:00;34.30;57.50
17370;DHT22;8802;52.402;4.920;2022-08-03T13:18:27;34.30;58.30
17370;DHT22;8802;52.402;4.920;2022-08-03T13:20:55;34.20;58.30
17370;DHT22;8802;52.402;4.920;2022-08-03T13:23:22;34.20;58.10
17370;DHT22;8802;52.402;4.920;2022-08-03T13:25:50;34.10;58.70
17370;DHT22;8802;52.402;4.920;2022-08-03T13:28:17;34.00;58.60
17370;DHT22;8802;52.402;4.920;2022-08-03T13:30:44;34.00;58.00
17370;DHT22;8802;52.402;4.920;2022-08-03T13:33:11;33.90;58.10
17370;DHT22;8802;52.402;4.920;2022-08-03T13:35:38;33.90;58.90
17370;DHT22;8802;52.402;4.920;2022-08-03T13:38:06;33.90;58.70
17370;DHT22;8802;52.402;4.920;2022-08-03T13:40:33;33.90;57.90
17370;DHT22;8802;52.402;4.920;2022-08-03T13:43:00;33.80;58.70
17370;DHT22;8802;52.402;4.920;2022-08-03T13:45:27;33.70;58.20
17370;DHT22;8802;52.402;4.920;2022-08-03T13:47:54;33.70;58.40
17370;DHT22;8802;52.402;4.920;2022-08-03T13:50:21;33.70;58.60
17370;DHT22;8802;52.402;4.920;2022-08-03T13:52:47;33.60;57.40
17370;DHT22;8802;52.402;4.920;2022-08-03T13:55:16;33.60;57.70
17370;DHT22;8802;52.402;4.920;2022-08-03T13:57:43;33.50;57.00
17370;DHT22;8802;52.402;4.920;2022-08-03T14:00:10;33.50;57.30
17370;DHT22;8802;52.402;4.920;2022-08-03T14:02:37;33.40;58.00
17370;DHT22;8802;52.402;4.920;2022-08-03T14:05:04;33.40;57.80
17370;DHT22;8802;52.402;4.920;2022-08-03T14:07:32;33.30;57.90
17370;DHT22;8802;52.402;4.920;2022-08-03T14:09:59;33.30;58.40
17370;DHT22;8802;52.402;4.920;2022-08-03T14:12:28;33.20;58.50
17370;DHT22;8802;52.402;4.920;2022-08-03T14:14:54;33.20;58.10
17370;DHT22;8802;52.402;4.920;2022-08-03T14:17:21;33.20;58.70
17370;DHT22;8802;52.402;4.920;2022-08-03T14:19:48;33.10;59.30
17370;DHT22;8802;52.402;4.920;2022-08-03T14:22:15;33.00;58.10
17370;DHT22;8802;52.402;4.920;2022-08-03T14:24:42;33.00;58.10
17370;DHT22;8802;52.402;4.920;2022-08-03T14:27:09;33.00;58.50
17370;DHT22;8802;52.402;4.920;2022-08-03T14:29:37;32.90;59.10
17370;DHT22;8802;52.402;4.920;2022-08-03T14:32:04;32.80;59.20
17370;DHT22;8802;52.402;4.920;2022-08-03T14:34:31;32.80;59.50
17370;DHT22;8802;52.402;4.920;2022-08-03T14:36:58;32.70;59.70
17370;DHT22;8802;52.402;4.920;2022-08-03T14:39:25;32.70;59.70
17370;DHT22;8802;52.402;4.920;2022-08-03T14:41:52;32.60;59.50
17370;DHT22;8802;52.402;4.920;2022-08-03T14:44:19;32.60;59.60
17370;DHT22;8802;52.402;4.920;2022-08-03T14:46:47;32.50;59.30
17370;DHT22;8802;52.402;4.920;2022-08-03T14:49:14;32.40;59.80
17370;DHT22;8802;52.402;4.920;2022-08-03T14:51:41;32.40;60.00
17370;DHT22;8802;52.402;4.920;2022-08-03T14:54:08;32.30;59.80
17370;DHT22;8802;52.402;4.920;2022-08-03T14:56:34;32.20;59.50
17370;DHT22;8802;52.402;4.920;2022-08-03T14:59:02;32.20;59.50
17370;DHT22;8802;52.402;4.920;2022-08-03T15:01:29;32.20;59.10
17370;DHT22;8802;52.402;4.920;2022-08-03T15:03:57;32.10;59.20
17370;DHT22;8802;52.402;4.920;2022-08-03T15:06:25;32.10;58.90
17370;DHT22;8802;52.402;4.920;2022-08-03T15:08:52;32.00;59.40
17370;DHT22;8802;52.402;4.920;2022-08-03T15:11:18;31.90;57.90
17370;DHT22;8802;52.402;4.920;2022-08-03T15:13:45;31.90;58.20
17370;DHT22;8802;52.402;4.920;2022-08-03T15:16:12;31.90;57.90
17370;DHT22;8802;52.402;4.920;2022-08-03T15:18:39;31.80;57.50
17370;DHT22;8802;52.402;4.920;2022-08-03T15:21:07;31.80;57.20
17370;DHT22;8802;52.402;4.920;2022-08-03T15:23:34;31.70;57.90
17370;DHT22;8802;52.402;4.920;2022-08-03T15:26:01;31.70;57.80
17370;DHT22;8802;52.402;4.920;2022-08-03T15:28:28;31.60;57.90
17370;DHT22;8802;52.402;4.920;2022-08-03T15:30:55;31.50;58.10
17370;DHT22;8802;52.402;4.920;2022-08-03T15:33:22;31.50;58.10
17370;DHT22;8802;52.402;4.920;2022-08-03T15:35:49;31.50;58.40
17370;DHT22;8802;52.402;4.920;2022-08-03T15:38:17;31.40;58.90
17370;DHT22;8802;52.402;4.920;2022-08-03T15:40:44;31.40;59.20
17370;DHT22;8802;52.402;4.920;2022-08-03T15:43:11;31.40;59.60
17370;DHT22;8802;52.402;4.920;2022-08-03T15:45:38;31.30;59.70
17370;DHT22;8802;52.402;4.920;2022-08-03T15:48:06;31.30;59.60
17370;DHT22;8802;52.402;4.920;2022-08-03T15:50:33;31.30;59.80
17370;DHT22;8802;52.402;4.920;2022-08-03T15:53:00;31.30;60.00
17370;DHT22;8802;52.402;4.920;2022-08-03T15:55:28;31.20;59.80
17370;DHT22;8802;52.402;4.920;2022-08-03T15:57:55;31.20;60.00
17370;DHT22;8802;52.402;4.920;2022-08-03T16:00:22;31.20;59.80
17370;DHT22;8802;52.402;4.920;2022-08-03T16:02:51;31.20;60.00
17370;DHT22;8802;52.402;4.920;2022-08-03T16:05:18;31.10;60.10